Ibra, Oman
Current Conditions -  °F | °C
As of 11:50 PM on Friday 31 Oct 2014 (Local Time) from OOMS Reporting Station
Clear Clear  
Wind Chill: 27°   Ceiling: Unl
Heat Index: 28°   Visibility: 5mi
Dew Point: 20°   Wind: 3mph
Humidity: 65%   Direction: 100°E
Pressure: 29.88"   Gusts: NA
Location:  22.72°N, 58.53°E
Report Text: OOMS 311950Z 10003KT 080V140 8000 NSC 27/20 Q1012 NOSIG
Loading
Personal Weather Stations






























Interactive Weather Map
Tropical Storm Tracking
New forecast layout! Learn more

10-Day Weather Forecast

Advertisements
Track Severe Weather on mobile